Time;durP1;ratioP1;P1;durP2;ratioP2;P2;SDS_P1;SDS_P2;PMS_P1;PMS_P2;Temp;Humidity;BMP_temperature;BMP_pressure;BME280_temperature;BME280_humidity;BME280_pressure;Samples;Min_cycle;Max_cycle;Signal;HPM_P1;HPM_P2
2022/01/19 13:59:50;;;;;;;16.30;10.75;;;;;;;6.35;60.00;100681.03;1023649;54;38301;-84
2022/01/19 14:00:57;;;;;;;15.85;11.20;;;;;;;6.23;60.25;100688.00;1089981;46;21264;-81
2022/01/19 14:02:03;;;;;;;15.77;9.63;;;;;;;6.29;59.95;100685.88;1087524;54;20038;-83
2022/01/19 14:03:06;;;;;;;17.05;9.50;;;;;;;6.20;59.92;100682.06;1087744;54;20061;-86
2022/01/19 14:04:12;;;;;;;21.00;11.45;;;;;;;5.89;61.20;100689.31;1087518;54;20034;-84
2022/01/19 14:05:14;;;;;;;14.80;10.65;;;;;;;6.02;60.76;100679.66;1087676;54;20034;-84
2022/01/19 14:06:28;;;;;;;15.82;9.85;;;;;;;5.98;61.02;100683.41;1087846;54;20770;-85
2022/01/19 14:07:32;;;;;;;14.13;9.75;;;;;;;5.95;60.85;100680.97;1087650;54;20030;-85
2022/01/19 14:08:34;;;;;;;14.85;9.43;;;;;;;6.01;60.88;100683.25;1087858;39;20963;-84
2022/01/19 14:09:39;;;;;;;14.27;10.13;;;;;;;5.92;60.85;100682.00;1087618;54;20030;-83
2022/01/19 14:10:43;;;;;;;16.60;9.75;;;;;;;5.80;61.22;100685.47;1087622;54;20041;-83
2022/01/19 14:12:16;;;;;;;14.60;10.05;;;;;;;5.88;61.08;100682.31;1087614;54;20053;-84
2022/01/19 14:13:32;;;;;;;14.65;10.02;;;;;;;5.66;62.19;100689.00;1087564;54;20757;-83
2022/01/19 14:14:43;;;;;;;16.05;9.95;;;;;;;5.47;62.39;100684.88;1087628;54;20816;-85
2022/01/19 14:15:54;;;;;;;13.82;10.48;;;;;;;5.53;62.50;100677.44;1087590;54;20091;-84
2022/01/19 14:17:02;;;;;;;14.40;10.63;;;;;;;5.69;61.86;100677.34;1087574;54;20034;-85
2022/01/19 14:18:31;;;;;;;15.52;11.10;;;;;;;5.43;62.92;100674.53;1087800;47;20030;-84
2022/01/19 14:19:56;;;;;;;15.10;9.98;;;;;;;5.48;62.50;100680.41;1087790;54;20030;-84
2022/01/19 14:21:25;;;;;;;18.90;11.48;;;;;;;5.25;63.07;100672.06;1087737;54;20027;-82
2022/01/19 14:22:37;;;;;;;20.13;11.20;;;;;;;5.30;63.58;100675.31;1087344;54;20794;-85
2022/01/19 14:23:57;;;;;;;15.40;10.02;;;;;;;5.33;63.39;100676.91;1087562;54;20098;-84
2022/01/19 14:25:06;;;;;;;14.43;9.70;;;;;;;5.43;62.78;100677.19;1088679;39;20075;-84
2022/01/19 14:26:09;;;;;;;14.73;10.23;;;;;;;5.33;63.22;100674.25;1087707;54;20046;-84
2022/01/19 14:27:17;;;;;;;17.35;10.63;;;;;;;5.23;63.73;100673.97;1087621;54;20031;-84
2022/01/19 14:28:21;;;;;;;17.10;10.48;;;;;;;5.20;63.96;100679.47;1087562;54;20034;-82
2022/01/19 14:29:23;;;;;;;17.00;10.75;;;;;;;5.13;64.65;100673.69;1087421;54;20039;-82
2022/01/19 14:30:32;;;;;;;17.25;11.70;;;;;;;5.21;64.30;100677.66;1087503;54;20038;-83
2022/01/19 14:31:37;;;;;;;19.33;11.00;;;;;;;5.18;64.55;100673.41;1087492;54;20090;-83
2022/01/19 14:32:44;;;;;;;18.30;10.52;;;;;;;5.27;64.48;100677.28;1087639;54;20062;-84
2022/01/19 14:33:53;;;;;;;14.13;10.07;;;;;;;5.44;64.25;100671.78;1093152;39;20767;-83
2022/01/19 14:34:55;;;;;;;19.00;10.00;;;;;;;5.24;64.84;100674.81;1087446;54;20046;-82
2022/01/19 14:36:00;;;;;;;18.05;11.38;;;;;;;5.27;64.62;100675.47;1087582;54;20057;-81
2022/01/19 14:37:12;;;;;;;16.02;10.23;;;;;;;5.24;65.00;100678.31;1088539;39;20663;-83
2022/01/19 14:38:28;;;;;;;17.67;11.95;;;;;;;5.11;64.95;100677.38;1087642;54;20042;-83
2022/01/19 14:39:47;;;;;;;15.50;10.98;;;;;;;5.15;65.01;100674.44;1087660;54;20031;-83
2022/01/19 14:41:03;;;;;;;16.15;11.55;;;;;;;4.90;65.53;100677.72;1087724;54;20050;-84
2022/01/19 14:42:11;;;;;;;14.55;10.35;;;;;;;4.89;65.71;100669.88;1087728;54;20038;-82
2022/01/19 14:43:16;;;;;;;14.95;11.00;;;;;;;4.79;65.81;100673.09;1087601;54;20042;-83
2022/01/19 14:44:39;;;;;;;16.50;11.60;;;;;;;4.88;65.77;100665.53;1091444;39;20598;-82
2022/01/19 14:45:55;;;;;;;18.77;11.57;;;;;;;4.83;65.92;100668.47;1087548;54;20034;-85
2022/01/19 14:47:16;;;;;;;17.92;13.13;;;;;;;4.91;65.82;100657.41;1087684;54;20058;-82
2022/01/19 14:48:25;;;;;;;16.42;11.32;;;;;;;5.02;65.25;100657.59;1087782;54;20699;-83
2022/01/19 14:49:31;;;;;;;16.35;11.30;;;;;;;4.92;65.52;100657.31;1090842;39;20339;-82
2022/01/19 14:50:38;;;;;;;17.90;11.70;;;;;;;4.90;65.43;100656.53;1087832;54;20034;-81
2022/01/19 14:51:45;;;;;;;15.05;11.40;;;;;;;4.88;65.61;100654.94;1089787;39;20956;-82
2022/01/19 14:53:21;;;;;;;18.83;12.57;;;;;;;4.86;65.63;100656.81;1087877;54;20103;-81
2022/01/19 14:54:38;;;;;;;20.73;11.43;;;;;;;4.96;65.11;100648.19;1089294;46;20041;-80
2022/01/19 14:55:42;;;;;;;19.38;12.38;;;;;;;4.77;65.92;100648.47;1087848;54;20031;-82
2022/01/19 14:56:47;;;;;;;15.75;11.40;;;;;;;4.68;66.24;100651.69;1087625;54;21561;-82
2022/01/19 14:57:50;;;;;;;18.25;10.98;;;;;;;4.86;65.44;100651.50;1087789;54;20991;-82
2022/01/19 14:59:22;;;;;;;14.98;10.80;;;;;;;4.77;65.71;100643.19;1087850;54;20031;-81
2022/01/19 15:05:51;;;;;;;14.88;10.80;;;;;;;4.85;65.82;100650.69;1087460;54;20077;-80
2022/01/19 15:07:10;;;;;;;15.57;10.45;;;;;;;5.02;65.07;100649.63;1087317;54;20027;-80
2022/01/19 15:08:46;;;;;;;16.50;11.07;;;;;;;4.89;65.35;100654.00;1087343;54;20034;-81
2022/01/19 15:10:06;;;;;;;19.90;11.73;;;;;;;4.76;65.92;100656.53;1087396;54;20037;-81
2022/01/19 15:11:11;;;;;;;18.15;11.48;;;;;;;4.88;65.59;100655.78;1087421;54;20064;-81
2022/01/19 15:12:15;;;;;;;17.13;10.75;;;;;;;5.00;65.24;100647.09;1087551;54;20041;-80
2022/01/19 15:13:19;;;;;;;18.77;11.32;;;;;;;4.88;65.27;100649.63;1087592;54;20069;-81
2022/01/19 15:14:23;;;;;;;15.13;10.85;;;;;;;5.02;65.26;100656.75;1092394;39;20713;-83
2022/01/19 15:15:45;;;;;;;17.25;11.52;;;;;;;4.85;65.52;100650.69;1087698;54;20031;-84
2022/01/19 15:18:55;;;;;;;16.45;10.95;;;;;;;4.83;65.62;100636.66;1087638;39;20903;-83
2022/01/19 15:19:56;;;;;;;18.00;11.57;;;;;;;4.84;65.67;100639.22;1090114;39;20804;-83
2022/01/19 15:21:20;;;;;;;17.80;11.82;;;;;;;4.82;65.96;100642.91;1087931;46;20034;-82
2022/01/19 15:22:26;;;;;;;17.02;11.88;;;;;;;4.71;65.80;100635.63;1087399;54;20037;-81
2022/01/19 15:23:28;;;;;;;17.52;12.35;;;;;;;4.82;65.76;100635.78;1087425;54;20039;-81
2022/01/19 15:24:32;;;;;;;17.77;12.18;;;;;;;4.86;65.56;100640.91;1087306;54;20907;-82
2022/01/19 15:25:39;;;;;;;16.02;10.98;;;;;;;4.79;65.96;100636.00;1088013;39;20710;-80
2022/01/19 15:26:43;;;;;;;17.60;11.90;;;;;;;4.90;65.46;100639.81;1087385;54;20035;-84
2022/01/19 15:27:46;;;;;;;18.27;12.48;;;;;;;4.74;65.83;100638.06;1089988;39;20728;-82
2022/01/19 15:28:51;;;;;;;15.30;11.30;;;;;;;4.68;65.97;100633.97;1087348;54;20034;-83
2022/01/19 15:29:52;;;;;;;16.38;11.70;;;;;;;4.91;65.32;100638.88;1087439;54;20034;-81
2022/01/19 15:30:57;;;;;;;18.17;12.25;;;;;;;4.97;65.23;100627.88;1087407;54;20727;-82
2022/01/19 15:32:01;;;;;;;16.27;10.63;;;;;;;4.88;65.31;100637.22;1087393;54;20444;-81
2022/01/19 15:33:07;;;;;;;17.00;11.60;;;;;;;4.94;65.23;100634.22;1087685;46;20064;-82
2022/01/19 15:34:11;;;;;;;19.85;12.30;;;;;;;4.82;65.60;100641.09;1087451;54;20038;-82
2022/01/19 15:35:13;;;;;;;19.58;12.10;;;;;;;4.80;65.97;100634.19;1087414;54;20065;-80
2022/01/19 15:36:20;;;;;;;17.65;11.98;;;;;;;4.93;65.35;100634.28;1087660;54;20034;-81
2022/01/19 15:37:22;;;;;;;18.23;12.10;;;;;;;4.71;66.02;100634.75;1088855;39;20587;-81
2022/01/19 15:38:29;;;;;;;16.65;12.25;;;;;;;4.65;65.79;100641.28;1087896;54;20061;-83
2022/01/19 15:39:35;;;;;;;16.65;11.20;;;;;;;4.77;65.69;100634.41;1092059;39;20603;-82
2022/01/19 15:40:41;;;;;;;17.85;11.90;;;;;;;4.86;65.53;100632.97;1088539;46;20762;-80
2022/01/19 15:41:43;;;;;;;15.18;10.60;;;;;;;4.72;65.95;100633.81;1087981;54;20058;-83
2022/01/19 15:42:52;;;;;;;17.88;11.80;;;;;;;4.88;65.45;100634.56;1088106;54;20030;-82
2022/01/19 15:43:56;;;;;;;14.32;10.65;;;;;;;4.73;65.67;100636.34;1087656;54;20038;-82
2022/01/19 15:45:02;;;;;;;18.10;12.60;;;;;;;4.66;66.34;100645.63;1087786;54;20061;-81
2022/01/19 15:46:08;;;;;;;16.92;12.18;;;;;;;4.65;66.04;100644.78;1088733;46;20035;-82
2022/01/19 15:47:10;;;;;;;17.75;11.98;;;;;;;4.75;66.18;100631.00;1087760;54;20034;-82
2022/01/19 15:48:16;;;;;;;18.63;12.25;;;;;;;4.91;65.81;100641.50;1087721;54;20104;-83
2022/01/19 15:49:17;;;;;;;15.10;10.57;;;;;;;4.97;65.29;100627.88;1087636;54;20073;-84
2022/01/19 15:50:22;;;;;;;18.48;10.90;;;;;;;4.97;65.31;100627.88;1087834;54;20031;-81
2022/01/19 15:51:29;;;;;;;17.38;10.82;;;;;;;4.83;65.81;100616.31;1087846;54;20727;-83
2022/01/19 15:52:33;;;;;;;16.25;10.80;;;;;;;4.87;65.80;100624.09;1087726;54;20030;-80
2022/01/19 15:53:37;;;;;;;15.65;11.10;;;;;;;4.91;65.66;100617.66;1087753;54;20037;-80
2022/01/19 15:54:39;;;;;;;16.38;10.25;;;;;;;4.90;65.58;100626.56;1087798;54;20057;-85
2022/01/19 15:55:43;;;;;;;17.50;11.25;;;;;;;4.72;66.43;100626.72;1087793;54;20041;-82
2022/01/19 15:56:50;;;;;;;14.52;11.13;;;;;;;4.71;66.49;100622.38;1087523;54;20094;-81
2022/01/19 15:57:55;;;;;;;18.17;11.85;;;;;;;4.90;66.01;100626.56;1087684;54;20073;-82
2022/01/19 15:58:59;;;;;;;16.73;11.48;;;;;;;4.86;66.05;100630.31;1087770;54;20040;-82
2022/01/19 16:00:03;;;;;;;15.40;10.80;;;;;;;4.99;65.82;100633.94;1088078;54;20018;-84
2022/01/19 16:01:08;;;;;;;14.63;10.02;;;;;;;4.99;65.70;100637.44;1088088;54;20042;-83
2022/01/19 16:02:22;;;;;;;;;;;;;;;;;;;;;
2022/01/19 16:04:47;;;;;;;15.35;10.38;;;;;;;4.92;65.94;100636.09;1087625;54;20030;-82
2022/01/19 16:06:08;;;;;;;18.05;10.95;;;;;;;4.95;65.80;100635.06;1087601;54;20046;-82
2022/01/19 16:07:12;;;;;;;17.08;11.55;;;;;;;4.93;65.71;100626.34;1089036;39;20177;-85
2022/01/19 16:08:43;;;;;;;17.00;11.63;;;;;;;4.82;66.33;100633.16;1087975;54;20022;-84
2022/01/19 16:09:51;;;;;;;17.20;11.00;;;;;;;4.76;66.34;100625.59;1087744;54;20030;-84
2022/01/19 16:10:56;;;;;;;17.90;11.60;;;;;;;4.66;66.64;100625.31;1088776;46;20060;-82
2022/01/19 16:11:57;;;;;;;17.33;12.38;;;;;;;4.81;66.50;100630.59;1087537;54;20031;-83
2022/01/19 16:13:02;;;;;;;18.90;12.48;;;;;;;4.79;66.65;100633.34;1087583;54;20037;-82
2022/01/19 16:14:04;;;;;;;20.30;13.15;;;;;;;4.72;66.70;100615.28;1087841;54;20063;-84
2022/01/19 16:15:09;;;;;;;17.70;12.38;;;;;;;4.73;66.77;100631.06;1088635;46;20090;-81
2022/01/19 16:16:11;;;;;;;20.48;12.32;;;;;;;4.60;67.16;100632.75;1087575;54;20053;-82
2022/01/19 16:17:15;;;;;;;17.80;11.90;;;;;;;4.74;66.64;100629.28;1087465;54;20030;-81
2022/01/19 16:18:20;;;;;;;21.58;13.00;;;;;;;4.74;66.98;100622.16;1087430;54;20785;-82
2022/01/19 16:19:25;;;;;;;24.42;13.07;;;;;;;4.76;67.02;100620.28;1087376;54;20041;-81
2022/01/19 16:20:29;;;;;;;17.65;11.48;;;;;;;4.83;66.53;100612.81;1091972;39;20695;-81
2022/01/19 16:21:33;;;;;;;14.75;11.10;;;;;;;4.88;66.59;100618.69;1087307;54;20138;-81
2022/01/19 16:26:33;;;;;;;17.58;11.68;;;;;;;4.71;66.97;100621.50;1088107;54;20040;-85
2022/01/19 16:27:45;;;;;;;17.63;11.93;;;;;;;4.72;67.06;100624.09;1090366;46;20023;-81
2022/01/19 16:28:55;;;;;;;19.73;12.52;;;;;;;4.73;67.32;100615.16;1088177;54;20034;-83
2022/01/19 16:30:14;;;;;;;16.77;11.77;;;;;;;4.68;67.10;100611.97;1088306;54;20065;-83
2022/01/19 16:54:25;;;;;;;19.15;13.30;;;;;;;4.79;67.35;100620.09;1086261;54;20856;-83
2022/01/19 16:55:30;;;;;;;17.80;12.60;;;;;;;4.93;67.06;100618.41;1088158;54;20098;-85
2022/01/19 16:56:31;;;;;;;17.42;11.95;;;;;;;4.79;67.55;100617.47;1088316;54;20018;-86
2022/01/19 16:57:36;;;;;;;18.40;12.60;;;;;;;4.95;67.10;100619.16;1088442;54;20049;-84
2022/01/19 17:18:28;;;;;;;20.45;13.73;;;;;;;4.72;67.76;100584.34;1088272;54;20018;-85
2022/01/19 17:19:32;;;;;;;18.08;12.60;;;;;;;4.87;67.46;100581.69;1088259;54;20053;-83
2022/01/19 17:20:37;;;;;;;20.15;13.73;;;;;;;4.69;67.81;100592.47;1088238;54;20037;-84
2022/01/19 17:21:42;;;;;;;21.08;13.88;;;;;;;4.74;67.79;100589.53;1088165;54;20030;-83
2022/01/19 17:34:18;;;;;;;21.50;13.90;;;;;;;4.82;67.84;100604.00;1087918;54;20019;-84
2022/01/19 17:36:39;;;;;;;21.40;14.38;;;;;;;4.68;68.36;100601.38;1075613;54;20034;31
2022/01/19 17:39:33;;;;;;;20.70;14.85;;;;;;;4.57;68.88;100603.81;1086509;54;20061;-85
2022/01/19 17:40:53;;;;;;;22.77;14.45;;;;;;;4.51;69.03;100599.72;1077793;54;21008;-82
2022/01/19 17:41:58;;;;;;;21.77;14.43;;;;;;;4.55;69.00;100606.56;1088292;54;20026;-86
2022/01/19 17:44:14;;;;;;;24.13;15.90;;;;;;;4.47;69.10;100614.94;1087837;54;21382;-85
2022/01/19 17:45:24;;;;;;;20.60;14.10;;;;;;;4.63;68.89;100619.34;1088258;54;20042;-84
2022/01/19 17:48:38;;;;;;;20.17;13.48;;;;;;;4.81;68.21;100615.56;1088355;54;20054;-85
2022/01/19 18:02:27;;;;;;;20.92;14.40;;;;;;;4.73;68.58;100611.69;1088721;54;20015;-86
2022/01/19 18:03:31;;;;;;;19.17;13.75;;;;;;;4.88;68.45;100617.84;1088306;54;20014;-85
2022/01/19 18:05:39;;;;;;;20.58;13.95;;;;;;;4.77;68.67;100607.91;1088359;54;20014;-84
2022/01/19 18:07:50;;;;;;;18.35;13.70;;;;;;;4.79;68.26;100608.66;1088335;54;20022;-83
2022/01/19 18:15:55;;;;;;;20.23;14.65;;;;;;;4.61;68.78;100608.81;1088320;54;20015;-85
2022/01/19 18:16:59;;;;;;;21.88;14.30;;;;;;;4.70;68.73;100602.13;1090352;46;20015;-86
2022/01/19 18:19:11;;;;;;;20.55;13.73;;;;;;;4.73;68.80;100609.03;1079343;39;20354;-84
2022/01/19 18:23:46;;;;;;;22.63;14.75;;;;;;;4.67;68.64;100613.78;1079063;39;20152;31
2022/01/19 18:27:02;;;;;;;18.08;12.60;;;;;;;4.75;68.60;100613.28;1088748;54;20019;-84
2022/01/19 18:33:50;;;;;;;17.63;12.35;;;;;;;4.95;67.96;100613.88;1077552;54;21015;31
2022/01/19 18:36:00;;;;;;;21.25;12.65;;;;;;;4.82;68.32;100609.31;1088221;54;19943;-85
2022/01/19 18:40:17;;;;;;;22.02;14.65;;;;;;;4.77;68.42;100603.44;1088479;54;20018;-86
2022/01/19 18:41:28;;;;;;;19.70;13.63;;;;;;;4.69;68.97;100608.38;1107999;39;20320;-85
2022/01/19 18:43:47;;;;;;;19.55;13.02;;;;;;;4.69;68.59;100601.25;1085069;54;21115;31
2022/01/19 18:44:52;;;;;;;19.55;14.05;;;;;;;4.71;68.80;100595.88;1090044;39;20759;-84
2022/01/19 18:45:54;;;;;;;17.60;13.15;;;;;;;4.82;68.30;100597.88;1088204;54;20015;-86
2022/01/19 18:47:00;;;;;;;19.40;13.63;;;;;;;4.67;68.55;100599.66;1088309;54;20067;-83
2022/01/19 18:48:11;;;;;;;17.83;13.35;;;;;;;4.63;68.94;100598.16;1088209;54;20034;-86
2022/01/19 18:49:15;;;;;;;21.35;14.05;;;;;;;4.61;69.23;100594.75;1088216;54;20707;-84
2022/01/19 18:53:29;;;;;;;20.95;13.57;;;;;;;4.74;68.85;100590.38;1087804;54;21691;-84
2022/01/19 18:59:52;;;;;;;18.00;12.93;;;;;;;4.82;68.67;100585.47;1088260;54;20018;-84
2022/01/19 19:05:22;;;;;;;19.35;13.48;;;;;;;4.89;68.19;100598.34;1088176;54;20022;-84
2022/01/19 19:06:27;;;;;;;17.55;12.32;;;;;;;4.83;68.46;100604.88;1088292;54;20045;-85
2022/01/19 19:07:33;;;;;;;17.60;12.25;;;;;;;4.82;68.31;100608.47;1088261;54;20042;-86
2022/01/19 19:08:37;;;;;;;19.38;12.82;;;;;;;4.78;68.49;100602.50;1088302;54;20055;-86
2022/01/19 19:15:35;;;;;;;18.77;12.85;;;;;;;4.67;68.52;100605.81;1088246;54;20034;-84
2022/01/19 19:16:36;;;;;;;19.38;13.05;;;;;;;4.62;68.93;100607.03;1088194;54;20022;-87
2022/01/19 19:17:48;;;;;;;18.83;13.18;;;;;;;4.62;69.19;100597.28;1088174;54;20035;-85
2022/01/19 19:20:01;;;;;;;17.02;12.68;;;;;;;4.46;69.34;100610.59;1088111;54;20021;-87
2022/01/19 19:21:06;;;;;;;19.95;14.05;;;;;;;4.60;69.19;100608.94;1088098;54;20762;-85
2022/01/19 19:22:18;;;;;;;20.45;13.60;;;;;;;4.75;68.62;100612.44;1088071;54;20066;-83
2022/01/19 19:25:35;;;;;;;19.05;13.75;;;;;;;4.53;69.43;100614.56;1088047;54;20014;-83
2022/01/19 19:26:39;;;;;;;18.90;12.93;;;;;;;4.56;69.07;100610.03;1088260;54;20019;-86
2022/01/19 19:28:09;;;;;;;17.80;12.60;;;;;;;4.53;69.34;100621.69;1088664;39;20634;-84
2022/01/19 19:29:14;;;;;;;18.98;12.52;;;;;;;4.56;69.06;100613.56;1088276;54;20053;-86
2022/01/19 19:35:33;;;;;;;19.20;13.25;;;;;;;4.51;69.35;100607.66;1088591;54;20006;-84
2022/01/19 19:36:36;;;;;;;16.55;12.10;;;;;;;4.55;69.49;100613.63;1088544;54;20034;-85
2022/01/19 19:37:43;;;;;;;17.60;12.70;;;;;;;4.51;69.16;100605.88;1088487;54;20038;-87
2022/01/19 19:41:21;;;;;;;17.90;12.25;;;;;;;4.51;69.57;100608.53;1088473;54;20354;-84
2022/01/19 19:42:24;;;;;;;17.70;11.75;;;;;;;4.69;69.30;100608.38;1088570;54;20030;-84
2022/01/19 19:46:44;;;;;;;20.52;13.18;;;;;;;4.33;70.46;100601.69;1088156;54;20011;-85
2022/01/19 19:52:23;;;;;;;16.33;11.98;;;;;;;4.50;69.89;100605.97;1088024;54;20033;-87
2022/01/19 20:02:42;;;;;;;20.95;13.50;;;;;;;4.25;70.81;100593.34;1088442;54;20011;-84
2022/01/19 20:10:02;;;;;;;17.60;12.15;;;;;;;4.30;71.20;100591.28;1088491;54;20014;-84
2022/01/19 20:24:10;;;;;;;20.55;13.40;;;;;;;4.17;71.76;100604.38;1079156;54;19966;-85
2022/01/19 20:27:33;;;;;;;18.05;12.95;;;;;;;4.30;71.40;100612.44;1087901;54;20050;-86
2022/01/19 20:36:11;;;;;;;16.50;11.63;;;;;;;4.10;72.32;100621.56;1084502;54;20050;-85
2022/01/19 20:37:20;;;;;;;17.08;12.27;;;;;;;4.12;72.45;100617.00;1088533;54;20062;-84
2022/01/19 20:41:53;;;;;;;18.25;12.32;;;;;;;4.27;72.63;100612.63;1088431;54;20075;-86
2022/01/19 20:42:57;;;;;;;17.02;11.05;;;;;;;4.21;72.55;100621.78;1088407;54;20452;-86
2022/01/19 20:44:02;;;;;;;16.50;12.07;;;;;;;4.17;73.10;100610.50;1088498;54;20018;-87
2022/01/19 20:45:09;;;;;;;17.88;12.20;;;;;;;4.21;72.74;100613.84;1088484;54;20707;-86
2022/01/19 20:49:39;;;;;;;17.10;12.60;;;;;;;4.05;73.79;100611.25;1088581;54;20035;-85
2022/01/19 20:50:44;;;;;;;17.30;12.73;;;;;;;4.12;73.81;100609.94;1092146;39;20570;-84
2022/01/19 20:51:49;;;;;;;17.95;12.80;;;;;;;4.06;73.71;100610.31;1088529;54;20014;-83
2022/01/19 20:52:53;;;;;;;17.70;12.38;;;;;;;4.12;73.77;100609.94;1088458;54;20718;-85
2022/01/19 20:53:58;;;;;;;13.90;9.93;;;;;;;4.29;73.24;100608.09;1088477;54;20025;-83
2022/01/19 20:55:05;;;;;;;15.52;10.93;;;;;;;4.28;73.19;100615.19;1088393;54;20034;-87
2022/01/19 20:56:06;;;;;;;15.32;11.52;;;;;;;4.16;73.72;100613.25;1088427;54;20042;-85
2022/01/19 20:57:15;;;;;;;16.55;11.82;;;;;;;4.12;74.01;100612.59;1088415;54;20031;-84
2022/01/19 21:00:39;;;;;;;16.98;12.05;;;;;;;3.97;74.70;100605.56;1087970;54;20029;-85
2022/01/19 21:04:56;;;;;;;19.33;12.27;;;;;;;3.92;75.12;100623.47;1088462;54;20092;-85
2022/01/19 21:12:17;;;;;;;15.20;10.32;;;;;;;3.93;75.72;100620.72;1087570;54;20034;-87
2022/01/19 21:13:19;;;;;;;16.48;11.13;;;;;;;3.85;75.61;100601.81;1088427;54;20793;-85
2022/01/19 21:21:15;;;;;;;15.68;10.65;;;;;;;3.96;75.56;100599.41;1088345;54;20030;-85
2022/01/19 21:22:18;;;;;;;16.25;11.02;;;;;;;3.91;75.80;100606.75;1088385;54;20026;-83
2022/01/19 21:34:59;;;;;;;14.20;10.68;;;;;;;3.99;75.60;100593.06;1088397;54;20021;-85
2022/01/19 21:45:50;;;;;;;15.40;10.07;;;;;;;4.07;75.05;100601.41;1092757;39;20702;-83
2022/01/19 21:46:53;;;;;;;15.02;10.10;;;;;;;4.00;75.58;100605.34;1090910;46;20325;-86
2022/01/19 21:47:57;;;;;;;12.23;9.00;;;;;;;4.19;75.02;100603.34;1088434;54;20124;-85
2022/01/19 21:49:03;;;;;;;13.70;9.57;;;;;;;4.29;74.57;100601.03;1088376;54;20039;-86
2022/01/19 21:50:09;;;;;;;13.02;9.07;;;;;;;4.35;74.45;100600.66;1106172;31;20754;-83
2022/01/19 21:51:13;;;;;;;12.30;8.43;;;;;;;4.40;73.97;100600.38;1088429;54;20037;-87
2022/01/19 21:52:27;;;;;;;12.02;8.52;;;;;;;4.41;74.46;100591.50;1088347;54;20022;-86
2022/01/19 21:54:40;;;;;;;13.43;9.20;;;;;;;4.28;74.58;100587.88;1088160;54;20034;-83
2022/01/19 21:55:42;;;;;;;14.77;10.00;;;;;;;4.17;75.00;100576.09;1088308;54;20037;-85
2022/01/19 21:56:47;;;;;;;13.43;8.65;;;;;;;4.30;74.54;100581.53;1088195;54;20041;-85
2022/01/19 21:57:48;;;;;;;11.88;9.13;;;;;;;4.12;74.83;100579.97;1088272;54;20058;-86
2022/01/19 22:01:04;;;;;;;15.43;10.02;;;;;;;3.99;75.79;100578.06;1088331;54;20014;-85
2022/01/19 22:09:19;;;;;;;12.98;9.10;;;;;;;3.98;75.29;100573.72;1083324;54;20030;31
2022/01/19 22:10:26;;;;;;;11.93;8.30;;;;;;;4.03;75.23;100573.44;1088339;54;20070;-83
2022/01/19 22:11:27;;;;;;;12.90;8.63;;;;;;;4.01;75.22;100564.72;1088331;54;20050;-84
2022/01/19 22:12:43;;;;;;;13.43;9.00;;;;;;;3.99;75.45;100575.41;1088271;54;20082;-86
2022/01/19 22:13:50;;;;;;;12.80;8.55;;;;;;;3.99;75.32;100572.78;1088332;54;20054;-85
2022/01/19 22:14:52;;;;;;;12.98;9.32;;;;;;;4.00;75.58;100565.66;1088284;54;20047;-84
2022/01/19 22:16:08;;;;;;;12.23;8.52;;;;;;;4.04;75.61;100569.84;1088304;54;21036;-84
2022/01/19 22:17:10;;;;;;;12.10;8.68;;;;;;;4.10;75.54;100566.00;1091171;46;20050;-85
2022/01/19 22:18:14;;;;;;;11.90;8.57;;;;;;;3.96;75.98;100572.09;1088334;54;20034;-86
2022/01/19 22:19:17;;;;;;;12.48;8.65;;;;;;;3.93;76.01;100561.69;1088209;54;20026;-83
2022/01/19 22:20:22;;;;;;;13.48;8.15;;;;;;;3.89;75.92;100566.31;1088309;54;20029;-85
2022/01/19 22:21:26;;;;;;;11.57;7.97;;;;;;;3.94;75.80;100574.81;1088218;54;20055;-83
2022/01/19 22:22:32;;;;;;;13.00;8.50;;;;;;;3.92;76.08;100571.41;1088184;54;20039;-85
2022/01/19 22:23:37;;;;;;;11.45;8.38;;;;;;;3.89;76.15;100567.16;1088266;54;20039;-85
2022/01/19 22:24:43;;;;;;;11.50;7.65;;;;;;;3.98;75.81;100567.53;1093831;46;20030;-84
2022/01/19 22:25:50;;;;;;;11.10;8.02;;;;;;;3.93;75.92;100566.97;1088170;54;20034;-82
2022/01/19 22:26:52;;;;;;;11.27;8.20;;;;;;;4.03;75.69;100568.16;1088139;54;20026;-84
2022/01/19 22:27:57;;;;;;;13.38;8.10;;;;;;;4.06;75.23;100563.53;1094944;47;20079;-84
2022/01/19 22:28:59;;;;;;;11.05;8.02;;;;;;;4.01;75.72;100572.66;1088176;54;20045;-84
2022/01/19 22:30:30;;;;;;;11.27;8.00;;;;;;;4.03;75.48;100573.44;1088234;54;20019;-84
2022/01/19 22:31:31;;;;;;;12.82;8.50;;;;;;;4.12;75.21;100572.91;1088232;54;20018;-85
2022/01/19 22:32:39;;;;;;;12.18;8.20;;;;;;;3.93;75.66;100583.69;1088216;54;20026;-83
2022/01/19 22:34:49;;;;;;;11.55;7.65;;;;;;;4.03;75.29;100581.38;1088553;54;20038;-83
2022/01/19 22:35:51;;;;;;;11.75;8.18;;;;;;;4.03;75.18;100578.72;1088312;54;20035;-83
2022/01/19 22:36:56;;;;;;;11.05;8.00;;;;;;;3.99;74.99;100575.41;1088298;54;20027;-82
2022/01/19 22:38:24;;;;;;;;;;;;;;;;;;;;;
2022/01/19 22:40:11;;;;;;;13.43;8.93;;;;;;;3.93;75.13;100580.19;1088138;54;20030;-84
2022/01/19 22:41:51;;;;;;;;;;;;;;;;;;;;;
2022/01/19 22:51:41;;;;;;;10.15;7.13;;;;;;;4.09;75.49;100588.94;1088046;54;20078;-86
2022/01/19 22:53:27;;;;;;;11.20;7.72;;;;;;;4.25;75.04;100582.78;1098260;47;20055;-84
2022/01/19 22:58:58;;;;;;;10.82;7.80;;;;;;;3.95;76.60;100587.09;1088472;54;20045;-84
